Pagrindinis puslapis
METAR-TAF:

METAR-TAF

Oro uostai :

Umeo, Švedija

platuma: 63-48N, ilguma: 020-17E, Aukštis: 7 m

Dabartinis oras

Ataskaita buvo paskelbta 29 minutes, ne 15:50 UTC
Ramus vėjas
Temperatūra -7°C
Drėgmė 100%
Slėgis 982 hPa
Matomumas 10 km arba daugiau
nėra debesų žemiau 1500 m ir nėra kamuolinių lietaus debesų

METAR: ESNU 071550Z 00000KT CAVOK M07/M07 Q0982 R14/71//55

Laikas: 17:19 (16:19 UTC)

Prognozė

Ataskaita buvo paskelbta 1 valandą ir 49 minutes, ne 14:30 UTC
Prognozė galioja nuo 07 metu 15 UTC su 07 metu 24 UTC
Vėjas 1 kt nuo kintamojo kryptimis
Matomumas 10 km arba daugiau
nėra debesų žemiau 1500 m ir nėra kamuolinių lietaus debesų

TAF: ESNU 071430Z 0715/0724 VRB01KT CAVOK

Orai ataskaitas ir orų prognozės (METAR, TAF).

turimą stotys yra geltonos ir raudonos taškus žemėlapyje.

Perkelti pele per norėdami pamatyti stoties vardą.

Tada spustelėkite, norėdami matyti oro stebėjimo ir prognozės.

Norėdami pakeisti žemėlapį: spustelėkite ant žalios mygtukų su juodo kryžiaus žemyn,; žalią mygtuką su brūkšneliu, jei norite nutolinti; arba žalių rodyklių gretimoms žemėlapius.


METAR-TAF: